sensor_id;sensor_type;location;lat;lon;timestamp;P1;durP1;ratioP1;P2;durP2;ratioP2
7116;SDS011;3600;48.568;7.870;2023-03-08T00:02:06;15.27;;;9.70;;
7116;SDS011;3600;48.568;7.870;2023-03-08T00:04:33;13.80;;;8.63;;
7116;SDS011;3600;48.568;7.870;2023-03-08T00:07:00;12.20;;;8.97;;
7116;SDS011;3600;48.568;7.870;2023-03-08T00:09:27;13.77;;;8.77;;
7116;SDS011;3600;48.568;7.870;2023-03-08T00:11:53;18.03;;;9.00;;
7116;SDS011;3600;48.568;7.870;2023-03-08T00:14:20;13.27;;;9.20;;
7116;SDS011;3600;48.568;7.870;2023-03-08T00:16:50;14.23;;;8.80;;
7116;SDS011;3600;48.568;7.870;2023-03-08T00:19:17;13.63;;;9.63;;
7116;SDS011;3600;48.568;7.870;2023-03-08T00:21:43;11.37;;;8.43;;
7116;SDS011;3600;48.568;7.870;2023-03-08T00:24:10;13.70;;;8.83;;
7116;SDS011;3600;48.568;7.870;2023-03-08T00:26:38;10.63;;;8.67;;
7116;SDS011;3600;48.568;7.870;2023-03-08T00:29:04;15.17;;;9.33;;
7116;SDS011;3600;48.568;7.870;2023-03-08T00:31:31;12.07;;;9.50;;
7116;SDS011;3600;48.568;7.870;2023-03-08T00:33:58;12.90;;;10.00;;
7116;SDS011;3600;48.568;7.870;2023-03-08T00:36:25;13.43;;;9.23;;
7116;SDS011;3600;48.568;7.870;2023-03-08T00:38:52;13.80;;;9.43;;
7116;SDS011;3600;48.568;7.870;2023-03-08T00:41:21;11.60;;;8.90;;
7116;SDS011;3600;48.568;7.870;2023-03-08T00:43:48;13.27;;;9.70;;
7116;SDS011;3600;48.568;7.870;2023-03-08T00:46:15;13.53;;;8.90;;
7116;SDS011;3600;48.568;7.870;2023-03-08T00:48:42;11.70;;;8.57;;
7116;SDS011;3600;48.568;7.870;2023-03-08T00:51:11;11.77;;;9.23;;
7116;SDS011;3600;48.568;7.870;2023-03-08T00:53:42;12.97;;;9.87;;
7116;SDS011;3600;48.568;7.870;2023-03-08T00:56:09;14.77;;;9.77;;
7116;SDS011;3600;48.568;7.870;2023-03-08T00:58:37;14.43;;;9.57;;
7116;SDS011;3600;48.568;7.870;2023-03-08T01:01:05;14.10;;;9.10;;
7116;SDS011;3600;48.568;7.870;2023-03-08T01:03:33;15.93;;;10.00;;
7116;SDS011;3600;48.568;7.870;2023-03-08T01:06:04;12.80;;;9.63;;
7116;SDS011;3600;48.568;7.870;2023-03-08T01:08:33;14.13;;;10.03;;
7116;SDS011;3600;48.568;7.870;2023-03-08T01:11:00;14.43;;;9.37;;
7116;SDS011;3600;48.568;7.870;2023-03-08T01:13:29;12.80;;;9.20;;
7116;SDS011;3600;48.568;7.870;2023-03-08T01:15:57;14.37;;;9.67;;
7116;SDS011;3600;48.568;7.870;2023-03-08T01:18:24;13.43;;;9.13;;
7116;SDS011;3600;48.568;7.870;2023-03-08T01:20:59;13.07;;;9.10;;
7116;SDS011;3600;48.568;7.870;2023-03-08T01:23:27;13.97;;;9.80;;
7116;SDS011;3600;48.568;7.870;2023-03-08T01:26:02;13.47;;;9.30;;
7116;SDS011;3600;48.568;7.870;2023-03-08T01:28:31;12.63;;;8.90;;
7116;SDS011;3600;48.568;7.870;2023-03-08T01:31:05;14.53;;;9.13;;
7116;SDS011;3600;48.568;7.870;2023-03-08T01:33:33;12.40;;;9.17;;
7116;SDS011;3600;48.568;7.870;2023-03-08T01:36:02;13.63;;;8.77;;
7116;SDS011;3600;48.568;7.870;2023-03-08T01:38:30;11.70;;;8.73;;
7116;SDS011;3600;48.568;7.870;2023-03-08T01:40:58;16.07;;;9.13;;
7116;SDS011;3600;48.568;7.870;2023-03-08T01:43:28;12.57;;;8.13;;
7116;SDS011;3600;48.568;7.870;2023-03-08T01:51:11;12.23;;;9.33;;
7116;SDS011;3600;48.568;7.870;2023-03-08T01:53:41;14.80;;;9.53;;
7116;SDS011;3600;48.568;7.870;2023-03-08T01:56:09;11.70;;;9.13;;
7116;SDS011;3600;48.568;7.870;2023-03-08T01:58:39;14.60;;;8.97;;
7116;SDS011;3600;48.568;7.870;2023-03-08T02:01:09;14.87;;;9.30;;
7116;SDS011;3600;48.568;7.870;2023-03-08T02:03:35;13.03;;;9.37;;
7116;SDS011;3600;48.568;7.870;2023-03-08T02:06:02;12.87;;;8.87;;
7116;SDS011;3600;48.568;7.870;2023-03-08T02:08:30;10.87;;;9.43;;
7116;SDS011;3600;48.568;7.870;2023-03-08T02:10:57;12.53;;;8.83;;
7116;SDS011;3600;48.568;7.870;2023-03-08T02:13:25;13.60;;;9.70;;
7116;SDS011;3600;48.568;7.870;2023-03-08T02:15:52;14.00;;;9.30;;
7116;SDS011;3600;48.568;7.870;2023-03-08T02:18:21;12.43;;;9.37;;
7116;SDS011;3600;48.568;7.870;2023-03-08T02:20:48;14.00;;;9.47;;
7116;SDS011;3600;48.568;7.870;2023-03-08T02:23:19;14.07;;;10.00;;
7116;SDS011;3600;48.568;7.870;2023-03-08T02:25:50;13.13;;;9.10;;
7116;SDS011;3600;48.568;7.870;2023-03-08T02:28:19;12.73;;;8.90;;
7116;SDS011;3600;48.568;7.870;2023-03-08T02:30:49;16.40;;;9.43;;
7116;SDS011;3600;48.568;7.870;2023-03-08T02:33:16;13.57;;;9.03;;
7116;SDS011;3600;48.568;7.870;2023-03-08T02:35:44;12.40;;;9.07;;
7116;SDS011;3600;48.568;7.870;2023-03-08T02:38:11;12.23;;;9.20;;
7116;SDS011;3600;48.568;7.870;2023-03-08T02:40:40;16.53;;;9.17;;
7116;SDS011;3600;48.568;7.870;2023-03-08T02:43:07;16.57;;;9.10;;
7116;SDS011;3600;48.568;7.870;2023-03-08T02:45:34;10.93;;;8.97;;
7116;SDS011;3600;48.568;7.870;2023-03-08T02:48:01;11.07;;;7.97;;
7116;SDS011;3600;48.568;7.870;2023-03-08T02:50:29;12.90;;;9.00;;
7116;SDS011;3600;48.568;7.870;2023-03-08T02:52:57;12.97;;;9.23;;
7116;SDS011;3600;48.568;7.870;2023-03-08T02:55:24;11.70;;;8.87;;
7116;SDS011;3600;48.568;7.870;2023-03-08T02:57:51;11.37;;;8.20;;
7116;SDS011;3600;48.568;7.870;2023-03-08T03:00:18;13.87;;;8.80;;
7116;SDS011;3600;48.568;7.870;2023-03-08T03:02:45;10.80;;;8.43;;
7116;SDS011;3600;48.568;7.870;2023-03-08T03:05:12;11.23;;;8.37;;
7116;SDS011;3600;48.568;7.870;2023-03-08T03:07:39;12.30;;;8.23;;
7116;SDS011;3600;48.568;7.870;2023-03-08T03:10:07;11.50;;;8.53;;
7116;SDS011;3600;48.568;7.870;2023-03-08T03:12:35;13.77;;;8.63;;
7116;SDS011;3600;48.568;7.870;2023-03-08T03:15:03;11.87;;;9.37;;
7116;SDS011;3600;48.568;7.870;2023-03-08T03:17:31;12.03;;;7.97;;
7116;SDS011;3600;48.568;7.870;2023-03-08T03:19:58;10.60;;;8.03;;
7116;SDS011;3600;48.568;7.870;2023-03-08T03:22:25;9.70;;;7.77;;
7116;SDS011;3600;48.568;7.870;2023-03-08T03:24:52;12.60;;;7.77;;
7116;SDS011;3600;48.568;7.870;2023-03-08T03:27:19;11.70;;;8.10;;
7116;SDS011;3600;48.568;7.870;2023-03-08T03:29:46;10.20;;;7.57;;
7116;SDS011;3600;48.568;7.870;2023-03-08T03:32:12;9.57;;;7.20;;
7116;SDS011;3600;48.568;7.870;2023-03-08T03:34:39;10.27;;;7.50;;
7116;SDS011;3600;48.568;7.870;2023-03-08T03:37:06;10.17;;;7.83;;
7116;SDS011;3600;48.568;7.870;2023-03-08T03:39:37;12.17;;;7.90;;
7116;SDS011;3600;48.568;7.870;2023-03-08T03:42:05;11.67;;;8.20;;
7116;SDS011;3600;48.568;7.870;2023-03-08T03:44:32;10.83;;;7.50;;
7116;SDS011;3600;48.568;7.870;2023-03-08T03:46:59;12.27;;;7.50;;
7116;SDS011;3600;48.568;7.870;2023-03-08T03:49:26;11.37;;;7.70;;
7116;SDS011;3600;48.568;7.870;2023-03-08T03:51:53;9.20;;;6.70;;
7116;SDS011;3600;48.568;7.870;2023-03-08T03:54:20;9.80;;;7.77;;
7116;SDS011;3600;48.568;7.870;2023-03-08T03:56:47;10.27;;;7.47;;
7116;SDS011;3600;48.568;7.870;2023-03-08T03:59:14;9.57;;;7.60;;
7116;SDS011;3600;48.568;7.870;2023-03-08T04:01:41;9.60;;;7.10;;
7116;SDS011;3600;48.568;7.870;2023-03-08T04:04:08;12.20;;;7.87;;
7116;SDS011;3600;48.568;7.870;2023-03-08T04:06:36;9.13;;;7.00;;
7116;SDS011;3600;48.568;7.870;2023-03-08T04:09:04;12.73;;;8.17;;
7116;SDS011;3600;48.568;7.870;2023-03-08T04:11:33;9.20;;;7.33;;
7116;SDS011;3600;48.568;7.870;2023-03-08T04:14:02;11.00;;;7.80;;
7116;SDS011;3600;48.568;7.870;2023-03-08T04:16:30;10.20;;;7.53;;
7116;SDS011;3600;48.568;7.870;2023-03-08T04:18:59;16.57;;;8.73;;
7116;SDS011;3600;48.568;7.870;2023-03-08T04:21:28;11.80;;;8.00;;
7116;SDS011;3600;48.568;7.870;2023-03-08T04:23:55;9.37;;;7.63;;
7116;SDS011;3600;48.568;7.870;2023-03-08T04:26:25;11.67;;;8.27;;
7116;SDS011;3600;48.568;7.870;2023-03-08T04:28:53;9.53;;;7.67;;
7116;SDS011;3600;48.568;7.870;2023-03-08T04:31:21;10.63;;;7.90;;
7116;SDS011;3600;48.568;7.870;2023-03-08T04:33:50;9.50;;;8.17;;
7116;SDS011;3600;48.568;7.870;2023-03-08T04:36:18;12.23;;;9.43;;
7116;SDS011;3600;48.568;7.870;2023-03-08T04:38:45;14.97;;;8.83;;
7116;SDS011;3600;48.568;7.870;2023-03-08T04:41:13;13.07;;;8.77;;
7116;SDS011;3600;48.568;7.870;2023-03-08T04:43:48;11.87;;;8.27;;
7116;SDS011;3600;48.568;7.870;2023-03-08T04:46:17;11.10;;;8.27;;
7116;SDS011;3600;48.568;7.870;2023-03-08T04:48:45;12.20;;;9.00;;
7116;SDS011;3600;48.568;7.870;2023-03-08T04:51:13;12.40;;;8.77;;
7116;SDS011;3600;48.568;7.870;2023-03-08T04:53:41;12.13;;;8.40;;
7116;SDS011;3600;48.568;7.870;2023-03-08T04:56:10;12.50;;;8.90;;
7116;SDS011;3600;48.568;7.870;2023-03-08T04:58:38;12.50;;;8.97;;
7116;SDS011;3600;48.568;7.870;2023-03-08T05:03:40;10.80;;;8.33;;
7116;SDS011;3600;48.568;7.870;2023-03-08T05:06:07;12.27;;;8.47;;
7116;SDS011;3600;48.568;7.870;2023-03-08T05:08:34;14.13;;;9.67;;
7116;SDS011;3600;48.568;7.870;2023-03-08T05:11:02;15.87;;;9.20;;
7116;SDS011;3600;48.568;7.870;2023-03-08T05:13:31;10.77;;;8.57;;
7116;SDS011;3600;48.568;7.870;2023-03-08T05:15:59;12.43;;;9.00;;
7116;SDS011;3600;48.568;7.870;2023-03-08T05:18:26;11.43;;;8.73;;
7116;SDS011;3600;48.568;7.870;2023-03-08T05:20:57;13.80;;;9.00;;
7116;SDS011;3600;48.568;7.870;2023-03-08T05:23:36;13.70;;;9.30;;
7116;SDS011;3600;48.568;7.870;2023-03-08T05:26:03;13.23;;;9.53;;
7116;SDS011;3600;48.568;7.870;2023-03-08T05:28:34;13.00;;;9.63;;
7116;SDS011;3600;48.568;7.870;2023-03-08T05:31:09;13.63;;;9.47;;
7116;SDS011;3600;48.568;7.870;2023-03-08T05:33:38;13.10;;;9.27;;
7116;SDS011;3600;48.568;7.870;2023-03-08T05:36:05;12.80;;;9.57;;
7116;SDS011;3600;48.568;7.870;2023-03-08T05:38:33;13.47;;;10.23;;
7116;SDS011;3600;48.568;7.870;2023-03-08T05:41:00;12.53;;;9.57;;
7116;SDS011;3600;48.568;7.870;2023-03-08T05:43:28;13.80;;;9.07;;
7116;SDS011;3600;48.568;7.870;2023-03-08T05:45:56;14.13;;;9.10;;
7116;SDS011;3600;48.568;7.870;2023-03-08T05:48:25;14.53;;;9.37;;
7116;SDS011;3600;48.568;7.870;2023-03-08T05:50:52;14.40;;;10.10;;
7116;SDS011;3600;48.568;7.870;2023-03-08T05:53:19;14.13;;;10.63;;
7116;SDS011;3600;48.568;7.870;2023-03-08T05:55:47;14.33;;;11.17;;
7116;SDS011;3600;48.568;7.870;2023-03-08T05:58:14;16.00;;;11.03;;
7116;SDS011;3600;48.568;7.870;2023-03-08T06:00:42;14.20;;;10.00;;
7116;SDS011;3600;48.568;7.870;2023-03-08T06:03:08;15.60;;;9.90;;
7116;SDS011;3600;48.568;7.870;2023-03-08T06:05:35;13.17;;;10.23;;
7116;SDS011;3600;48.568;7.870;2023-03-08T06:08:02;13.57;;;9.80;;
7116;SDS011;3600;48.568;7.870;2023-03-08T06:10:30;12.47;;;9.97;;
7116;SDS011;3600;48.568;7.870;2023-03-08T06:12:56;13.67;;;10.27;;
7116;SDS011;3600;48.568;7.870;2023-03-08T06:15:23;12.00;;;9.23;;
7116;SDS011;3600;48.568;7.870;2023-03-08T06:17:53;13.00;;;9.33;;
7116;SDS011;3600;48.568;7.870;2023-03-08T06:20:20;14.60;;;9.23;;
7116;SDS011;3600;48.568;7.870;2023-03-08T06:22:46;12.27;;;10.27;;
7116;SDS011;3600;48.568;7.870;2023-03-08T06:25:14;13.50;;;9.17;;
7116;SDS011;3600;48.568;7.870;2023-03-08T06:27:41;15.03;;;8.50;;
7116;SDS011;3600;48.568;7.870;2023-03-08T06:30:08;9.77;;;8.10;;
7116;SDS011;3600;48.568;7.870;2023-03-08T06:32:36;13.03;;;9.07;;
7116;SDS011;3600;48.568;7.870;2023-03-08T06:35:03;10.87;;;7.43;;
7116;SDS011;3600;48.568;7.870;2023-03-08T06:37:34;10.00;;;6.97;;
7116;SDS011;3600;48.568;7.870;2023-03-08T06:40:01;10.63;;;7.47;;
7116;SDS011;3600;48.568;7.870;2023-03-08T06:42:31;10.23;;;7.30;;
7116;SDS011;3600;48.568;7.870;2023-03-08T06:45:06;9.53;;;6.97;;
7116;SDS011;3600;48.568;7.870;2023-03-08T06:47:34;8.93;;;7.13;;
7116;SDS011;3600;48.568;7.870;2023-03-08T06:50:01;8.53;;;7.00;;
7116;SDS011;3600;48.568;7.870;2023-03-08T06:52:28;9.37;;;7.37;;
7116;SDS011;3600;48.568;7.870;2023-03-08T06:55:00;9.57;;;6.97;;
7116;SDS011;3600;48.568;7.870;2023-03-08T06:57:26;10.10;;;7.73;;
7116;SDS011;3600;48.568;7.870;2023-03-08T06:59:53;10.90;;;7.87;;
7116;SDS011;3600;48.568;7.870;2023-03-08T07:02:20;9.97;;;7.87;;
7116;SDS011;3600;48.568;7.870;2023-03-08T07:04:47;11.03;;;7.50;;
7116;SDS011;3600;48.568;7.870;2023-03-08T07:07:15;11.93;;;8.27;;
7116;SDS011;3600;48.568;7.870;2023-03-08T07:09:41;9.30;;;7.67;;
7116;SDS011;3600;48.568;7.870;2023-03-08T07:12:08;13.17;;;8.97;;
7116;SDS011;3600;48.568;7.870;2023-03-08T07:14:35;11.33;;;9.90;;
7116;SDS011;3600;48.568;7.870;2023-03-08T07:17:02;12.17;;;10.87;;
7116;SDS011;3600;48.568;7.870;2023-03-08T07:19:29;12.03;;;8.43;;
7116;SDS011;3600;48.568;7.870;2023-03-08T07:21:56;10.87;;;7.40;;
7116;SDS011;3600;48.568;7.870;2023-03-08T07:24:23;9.53;;;8.10;;
7116;SDS011;3600;48.568;7.870;2023-03-08T07:26:50;8.37;;;7.10;;
7116;SDS011;3600;48.568;7.870;2023-03-08T07:29:17;9.77;;;7.27;;
7116;SDS011;3600;48.568;7.870;2023-03-08T07:31:43;9.47;;;6.40;;
7116;SDS011;3600;48.568;7.870;2023-03-08T07:34:10;8.77;;;6.50;;
7116;SDS011;3600;48.568;7.870;2023-03-08T07:36:37;10.40;;;7.40;;
7116;SDS011;3600;48.568;7.870;2023-03-08T07:39:05;10.07;;;7.73;;
7116;SDS011;3600;48.568;7.870;2023-03-08T07:41:32;9.97;;;7.90;;
7116;SDS011;3600;48.568;7.870;2023-03-08T07:43:59;19.33;;;8.30;;
7116;SDS011;3600;48.568;7.870;2023-03-08T07:46:27;12.80;;;7.57;;
7116;SDS011;3600;48.568;7.870;2023-03-08T07:48:55;11.30;;;7.50;;
7116;SDS011;3600;48.568;7.870;2023-03-08T07:51:22;8.93;;;6.00;;
7116;SDS011;3600;48.568;7.870;2023-03-08T07:53:50;9.67;;;6.67;;
7116;SDS011;3600;48.568;7.870;2023-03-08T07:56:17;10.40;;;6.63;;
7116;SDS011;3600;48.568;7.870;2023-03-08T07:58:44;7.43;;;5.50;;
7116;SDS011;3600;48.568;7.870;2023-03-08T08:01:11;8.03;;;5.50;;
7116;SDS011;3600;48.568;7.870;2023-03-08T08:03:39;5.83;;;5.23;;
7116;SDS011;3600;48.568;7.870;2023-03-08T08:06:06;6.33;;;5.30;;
7116;SDS011;3600;48.568;7.870;2023-03-08T08:08:34;8.07;;;5.17;;
7116;SDS011;3600;48.568;7.870;2023-03-08T08:11:00;6.93;;;5.27;;
7116;SDS011;3600;48.568;7.870;2023-03-08T08:13:34;5.87;;;5.23;;
7116;SDS011;3600;48.568;7.870;2023-03-08T08:16:01;6.33;;;5.37;;
7116;SDS011;3600;48.568;7.870;2023-03-08T08:18:28;5.40;;;4.90;;
7116;SDS011;3600;48.568;7.870;2023-03-08T08:20:59;7.47;;;5.70;;
7116;SDS011;3600;48.568;7.870;2023-03-08T08:23:30;7.17;;;5.77;;
7116;SDS011;3600;48.568;7.870;2023-03-08T08:25:58;10.57;;;6.60;;
7116;SDS011;3600;48.568;7.870;2023-03-08T08:28:25;6.57;;;5.40;;
7116;SDS011;3600;48.568;7.870;2023-03-08T08:30:56;9.40;;;6.03;;
7116;SDS011;3600;48.568;7.870;2023-03-08T08:33:27;7.50;;;6.47;;
7116;SDS011;3600;48.568;7.870;2023-03-08T08:35:54;7.03;;;5.83;;
7116;SDS011;3600;48.568;7.870;2023-03-08T08:38:21;6.00;;;5.40;;
7116;SDS011;3600;48.568;7.870;2023-03-08T08:40:49;6.13;;;4.97;;
7116;SDS011;3600;48.568;7.870;2023-03-08T08:43:16;6.50;;;4.90;;
7116;SDS011;3600;48.568;7.870;2023-03-08T08:45:44;5.00;;;4.13;;
7116;SDS011;3600;48.568;7.870;2023-03-08T08:48:12;5.83;;;4.57;;
7116;SDS011;3600;48.568;7.870;2023-03-08T08:50:40;7.60;;;4.10;;
7116;SDS011;3600;48.568;7.870;2023-03-08T08:53:07;5.57;;;3.80;;
7116;SDS011;3600;48.568;7.870;2023-03-08T08:55:35;4.30;;;3.43;;
7116;SDS011;3600;48.568;7.870;2023-03-08T08:58:02;5.10;;;3.67;;
7116;SDS011;3600;48.568;7.870;2023-03-08T09:00:30;4.60;;;4.00;;
7116;SDS011;3600;48.568;7.870;2023-03-08T09:02:59;5.17;;;3.67;;
7116;SDS011;3600;48.568;7.870;2023-03-08T09:05:27;4.30;;;3.23;;
7116;SDS011;3600;48.568;7.870;2023-03-08T09:07:57;8.77;;;3.83;;
7116;SDS011;3600;48.568;7.870;2023-03-08T09:10:26;4.53;;;3.63;;
7116;SDS011;3600;48.568;7.870;2023-03-08T09:12:55;4.00;;;3.43;;
7116;SDS011;3600;48.568;7.870;2023-03-08T09:15:24;3.67;;;3.17;;
7116;SDS011;3600;48.568;7.870;2023-03-08T09:17:52;6.20;;;3.40;;
7116;SDS011;3600;48.568;7.870;2023-03-08T09:20:19;4.17;;;3.70;;
7116;SDS011;3600;48.568;7.870;2023-03-08T09:22:48;3.83;;;3.37;;
7116;SDS011;3600;48.568;7.870;2023-03-08T09:25:15;4.97;;;3.30;;
7116;SDS011;3600;48.568;7.870;2023-03-08T09:27:44;3.53;;;3.07;;
7116;SDS011;3600;48.568;7.870;2023-03-08T09:30:11;5.23;;;3.37;;
7116;SDS011;3600;48.568;7.870;2023-03-08T09:32:40;4.67;;;3.40;;
7116;SDS011;3600;48.568;7.870;2023-03-08T09:35:06;5.20;;;3.43;;
7116;SDS011;3600;48.568;7.870;2023-03-08T09:37:33;7.20;;;3.37;;
7116;SDS011;3600;48.568;7.870;2023-03-08T09:40:01;3.57;;;3.10;;
7116;SDS011;3600;48.568;7.870;2023-03-08T09:42:34;3.47;;;3.17;;
7116;SDS011;3600;48.568;7.870;2023-03-08T09:48:03;3.13;;;2.83;;
7116;SDS011;3600;48.568;7.870;2023-03-08T09:55:54;9.77;;;3.10;;
7116;SDS011;3600;48.568;7.870;2023-03-08T10:01:19;3.97;;;3.23;;
7116;SDS011;3600;48.568;7.870;2023-03-08T10:06:49;3.67;;;2.77;;
7116;SDS011;3600;48.568;7.870;2023-03-08T10:09:34;3.07;;;2.77;;
7116;SDS011;3600;48.568;7.870;2023-03-08T10:12:29;8.53;;;3.00;;
7116;SDS011;3600;48.568;7.870;2023-03-08T10:15:14;3.13;;;2.60;;
7116;SDS011;3600;48.568;7.870;2023-03-08T10:20:31;3.03;;;2.60;;
7116;SDS011;3600;48.568;7.870;2023-03-08T10:23:19;2.53;;;2.33;;
7116;SDS011;3600;48.568;7.870;2023-03-08T10:25:48;3.40;;;2.60;;
7116;SDS011;3600;48.568;7.870;2023-03-08T10:28:17;2.80;;;2.60;;
7116;SDS011;3600;48.568;7.870;2023-03-08T10:30:46;3.33;;;2.60;;
7116;SDS011;3600;48.568;7.870;2023-03-08T10:33:15;2.75;;;2.55;;
7116;SDS011;3600;48.568;7.870;2023-03-08T10:38:22;2.63;;;2.20;;
7116;SDS011;3600;48.568;7.870;2023-03-08T10:40:58;2.93;;;2.23;;
7116;SDS011;3600;48.568;7.870;2023-03-08T10:43:46;2.70;;;2.47;;
7116;SDS011;3600;48.568;7.870;2023-03-08T10:46:16;2.40;;;2.20;;
7116;SDS011;3600;48.568;7.870;2023-03-08T10:48:45;2.83;;;2.57;;
7116;SDS011;3600;48.568;7.870;2023-03-08T10:51:20;4.07;;;2.20;;
7116;SDS011;3600;48.568;7.870;2023-03-08T10:53:52;3.30;;;2.30;;
7116;SDS011;3600;48.568;7.870;2023-03-08T10:59:05;3.73;;;2.40;;
7116;SDS011;3600;48.568;7.870;2023-03-08T11:01:48;4.13;;;2.70;;
7116;SDS011;3600;48.568;7.870;2023-03-08T11:04:20;3.20;;;2.70;;
7116;SDS011;3600;48.568;7.870;2023-03-08T11:06:48;3.43;;;3.13;;
7116;SDS011;3600;48.568;7.870;2023-03-08T11:11:50;4.40;;;3.03;;
7116;SDS011;3600;48.568;7.870;2023-03-08T11:14:18;3.47;;;3.17;;
7116;SDS011;3600;48.568;7.870;2023-03-08T11:16:50;3.30;;;2.80;;
7116;SDS011;3600;48.568;7.870;2023-03-08T11:30:20;2.17;;;1.98;;
7116;SDS011;3600;48.568;7.870;2023-03-08T11:35:55;3.65;;;1.98;;
7116;SDS011;3600;48.568;7.870;2023-03-08T11:38:28;1.90;;;1.70;;
7116;SDS011;3600;48.568;7.870;2023-03-08T11:43:34;1.88;;;1.65;;
7116;SDS011;3600;48.568;7.870;2023-03-08T11:46:23;2.55;;;2.17;;
7116;SDS011;3600;48.568;7.870;2023-03-08T11:52:00;1.77;;;1.67;;
7116;SDS011;3600;48.568;7.870;2023-03-08T11:57:16;2.38;;;1.73;;
7116;SDS011;3600;48.568;7.870;2023-03-08T11:59:45;3.53;;;1.60;;
7116;SDS011;3600;48.568;7.870;2023-03-08T12:02:17;1.25;;;1.15;;
7116;SDS011;3600;48.568;7.870;2023-03-08T12:15:47;0.60;;;0.60;;
7116;SDS011;3600;48.568;7.870;2023-03-08T12:21:12;2.08;;;0.60;;
7116;SDS011;3600;48.568;7.870;2023-03-08T12:23:59;0.30;;;0.30;;
7116;SDS011;3600;48.568;7.870;2023-03-08T12:26:49;1.38;;;0.40;;
7116;SDS011;3600;48.568;7.870;2023-03-08T12:29:27;0.30;;;0.30;;
7116;SDS011;3600;48.568;7.870;2023-03-08T12:32:02;1.23;;;0.40;;
7116;SDS011;3600;48.568;7.870;2023-03-08T12:34:43;0.30;;;0.30;;
7116;SDS011;3600;48.568;7.870;2023-03-08T12:37:53;0.30;;;0.30;;
7116;SDS011;3600;48.568;7.870;2023-03-08T12:40:06;0.15;;;0.10;;
7116;SDS011;3600;48.568;7.870;2023-03-08T12:43:10;1.10;;;0.63;;
7116;SDS011;3600;48.568;7.870;2023-03-08T12:48:27;0.60;;;0.60;;
7116;SDS011;3600;48.568;7.870;2023-03-08T12:51:02;0.88;;;0.80;;
7116;SDS011;3600;48.568;7.870;2023-03-08T12:56:20;40.30;;;24.42;;
7116;SDS011;3600;48.568;7.870;2023-03-08T13:04:02;3.05;;;1.38;;
7116;SDS011;3600;48.568;7.870;2023-03-08T13:09:27;2.45;;;1.23;;
7116;SDS011;3600;48.568;7.870;2023-03-08T13:22:54;0.70;;;0.70;;
7116;SDS011;3600;48.568;7.870;2023-03-08T13:28:09;0.40;;;0.40;;
7116;SDS011;3600;48.568;7.870;2023-03-08T13:30:46;0.57;;;0.50;;
7116;SDS011;3600;48.568;7.870;2023-03-08T13:33:24;0.60;;;0.60;;
7116;SDS011;3600;48.568;7.870;2023-03-08T13:36:19;0.30;;;0.30;;
7116;SDS011;3600;48.568;7.870;2023-03-08T13:39:00;0.40;;;0.40;;
7116;SDS011;3600;48.568;7.870;2023-03-08T13:44:00;1.35;;;0.60;;
7116;SDS011;3600;48.568;7.870;2023-03-08T13:46:31;0.20;;;0.20;;
7116;SDS011;3600;48.568;7.870;2023-03-08T13:48:59;0.25;;;0.25;;
7116;SDS011;3600;48.568;7.870;2023-03-08T13:51:27;0.30;;;0.20;;
7116;SDS011;3600;48.568;7.870;2023-03-08T13:53:54;0.40;;;0.40;;
7116;SDS011;3600;48.568;7.870;2023-03-08T13:56:22;1.38;;;0.50;;
7116;SDS011;3600;48.568;7.870;2023-03-08T13:58:52;0.30;;;0.30;;
7116;SDS011;3600;48.568;7.870;2023-03-08T14:01:23;2.75;;;0.50;;
7116;SDS011;3600;48.568;7.870;2023-03-08T14:03:51;0.73;;;0.47;;
7116;SDS011;3600;48.568;7.870;2023-03-08T14:08:55;0.40;;;0.40;;
7116;SDS011;3600;48.568;7.870;2023-03-08T14:11:31;1.17;;;0.68;;
7116;SDS011;3600;48.568;7.870;2023-03-08T14:14:06;0.73;;;0.40;;
7116;SDS011;3600;48.568;7.870;2023-03-08T14:16:50;0.55;;;0.47;;
7116;SDS011;3600;48.568;7.870;2023-03-08T14:19:36;0.73;;;0.40;;
7116;SDS011;3600;48.568;7.870;2023-03-08T14:22:11;0.70;;;0.55;;
7116;SDS011;3600;48.568;7.870;2023-03-08T14:24:52;1.40;;;0.60;;
7116;SDS011;3600;48.568;7.870;2023-03-08T14:29:47;2.58;;;1.23;;
7116;SDS011;3600;48.568;7.870;2023-03-08T14:34:45;0.82;;;0.50;;
7116;SDS011;3600;48.568;7.870;2023-03-08T14:37:23;0.30;;;0.30;;
7116;SDS011;3600;48.568;7.870;2023-03-08T14:39:53;0.30;;;0.30;;
7116;SDS011;3600;48.568;7.870;2023-03-08T14:48:13;1.85;;;0.70;;
7116;SDS011;3600;48.568;7.870;2023-03-08T14:50:53;2.40;;;0.50;;
7116;SDS011;3600;48.568;7.870;2023-03-08T14:53:25;1.45;;;0.30;;
7116;SDS011;3600;48.568;7.870;2023-03-08T14:55:55;0.57;;;0.52;;
7116;SDS011;3600;48.568;7.870;2023-03-08T14:58:27;4.05;;;0.63;;
7116;SDS011;3600;48.568;7.870;2023-03-08T15:00:57;2.58;;;0.35;;
7116;SDS011;3600;48.568;7.870;2023-03-08T15:03:26;0.30;;;0.30;;
7116;SDS011;3600;48.568;7.870;2023-03-08T15:05:54;2.40;;;0.57;;
7116;SDS011;3600;48.568;7.870;2023-03-08T15:08:22;0.75;;;0.70;;
7116;SDS011;3600;48.568;7.870;2023-03-08T15:10:49;1.17;;;0.75;;
7116;SDS011;3600;48.568;7.870;2023-03-08T15:13:18;1.23;;;0.65;;
7116;SDS011;3600;48.568;7.870;2023-03-08T15:15:47;1.98;;;0.40;;
7116;SDS011;3600;48.568;7.870;2023-03-08T15:18:15;0.85;;;0.70;;
7116;SDS011;3600;48.568;7.870;2023-03-08T15:20:46;1.88;;;0.68;;
7116;SDS011;3600;48.568;7.870;2023-03-08T15:23:17;2.80;;;1.10;;
7116;SDS011;3600;48.568;7.870;2023-03-08T15:25:47;0.93;;;0.70;;
7116;SDS011;3600;48.568;7.870;2023-03-08T15:28:15;1.48;;;0.35;;
7116;SDS011;3600;48.568;7.870;2023-03-08T15:30:43;0.73;;;0.40;;
7116;SDS011;3600;48.568;7.870;2023-03-08T15:33:10;1.17;;;0.57;;
7116;SDS011;3600;48.568;7.870;2023-03-08T15:35:37;1.38;;;0.68;;
7116;SDS011;3600;48.568;7.870;2023-03-08T15:38:05;0.50;;;0.50;;
7116;SDS011;3600;48.568;7.870;2023-03-08T15:40:33;1.95;;;0.60;;
7116;SDS011;3600;48.568;7.870;2023-03-08T15:43:01;0.75;;;0.75;;
7116;SDS011;3600;48.568;7.870;2023-03-08T15:45:28;3.15;;;0.60;;
7116;SDS011;3600;48.568;7.870;2023-03-08T15:50:38;1.85;;;0.50;;
7116;SDS011;3600;48.568;7.870;2023-03-08T15:53:05;0.40;;;0.40;;
7116;SDS011;3600;48.568;7.870;2023-03-08T15:55:34;0.98;;;0.90;;
7116;SDS011;3600;48.568;7.870;2023-03-08T15:58:02;0.98;;;0.40;;
7116;SDS011;3600;48.568;7.870;2023-03-08T16:00:28;0.47;;;0.47;;
7116;SDS011;3600;48.568;7.870;2023-03-08T16:02:56;1.83;;;0.80;;
7116;SDS011;3600;48.568;7.870;2023-03-08T16:05:23;0.80;;;0.80;;
7116;SDS011;3600;48.568;7.870;2023-03-08T16:07:53;1.05;;;0.85;;
7116;SDS011;3600;48.568;7.870;2023-03-08T16:10:20;1.20;;;1.10;;
7116;SDS011;3600;48.568;7.870;2023-03-08T16:12:47;1.23;;;0.70;;
7116;SDS011;3600;48.568;7.870;2023-03-08T16:15:14;0.90;;;0.90;;
7116;SDS011;3600;48.568;7.870;2023-03-08T16:17:41;0.68;;;0.60;;
7116;SDS011;3600;48.568;7.870;2023-03-08T16:20:09;1.67;;;0.43;;
7116;SDS011;3600;48.568;7.870;2023-03-08T16:22:37;0.95;;;0.93;;
7116;SDS011;3600;48.568;7.870;2023-03-08T16:25:05;0.82;;;0.60;;
7116;SDS011;3600;48.568;7.870;2023-03-08T16:27:32;0.40;;;0.40;;
7116;SDS011;3600;48.568;7.870;2023-03-08T16:30:02;0.68;;;0.50;;
7116;SDS011;3600;48.568;7.870;2023-03-08T16:32:29;0.20;;;0.20;;
7116;SDS011;3600;48.568;7.870;2023-03-08T16:34:57;0.68;;;0.50;;
7116;SDS011;3600;48.568;7.870;2023-03-08T16:37:24;0.40;;;0.40;;
7116;SDS011;3600;48.568;7.870;2023-03-08T16:39:52;1.85;;;0.55;;
7116;SDS011;3600;48.568;7.870;2023-03-08T16:42:27;0.85;;;0.50;;
7116;SDS011;3600;48.568;7.870;2023-03-08T16:44:55;0.98;;;0.90;;
7116;SDS011;3600;48.568;7.870;2023-03-08T16:47:22;0.82;;;0.60;;
7116;SDS011;3600;48.568;7.870;2023-03-08T16:49:50;0.60;;;0.60;;
7116;SDS011;3600;48.568;7.870;2023-03-08T16:52:17;0.47;;;0.47;;
7116;SDS011;3600;48.568;7.870;2023-03-08T16:54:44;0.65;;;0.50;;
7116;SDS011;3600;48.568;7.870;2023-03-08T16:57:12;0.30;;;0.30;;
7116;SDS011;3600;48.568;7.870;2023-03-08T16:59:45;1.33;;;0.40;;
7116;SDS011;3600;48.568;7.870;2023-03-08T17:02:13;1.10;;;1.00;;
7116;SDS011;3600;48.568;7.870;2023-03-08T17:04:42;1.00;;;1.00;;
7116;SDS011;3600;48.568;7.870;2023-03-08T17:07:10;1.17;;;0.73;;
7116;SDS011;3600;48.568;7.870;2023-03-08T17:09:37;0.45;;;0.43;;
7116;SDS011;3600;48.568;7.870;2023-03-08T17:12:05;0.63;;;0.63;;
7116;SDS011;3600;48.568;7.870;2023-03-08T17:14:33;0.63;;;0.63;;
7116;SDS011;3600;48.568;7.870;2023-03-08T17:17:00;0.80;;;0.80;;